JBU2839 KJFK-TJBQ
Flight info
| Callsign | JBU2839 |
|---|---|
| Flight time | N/A |
| Altitude | 36000 |
| Route | SHIPP Y490 BEHHR/M078F360 Y490 ROLLE DCT ATUGI/M078F350 L454 SAVON/M078F370 L454 LUCTI/N0455F370 L454 MNDEZ DCT FIPEK Y439 MEEGL |
| Aircraft | A321/M-SDE3FGHIRWY/LB1 |
Departure
| Time | 2026-05-09 15:47 |
|---|---|
| Airport | John F. Kennedy International Airport (KJFK) |
Arrival
| Time | N/A |
|---|---|
| Airport | Rafael Hernández International Airport (TJBQ) |
| Time | Latitude | Longitude | Altitude | Speed | Heading |
|---|---|---|---|---|---|
| 2026-05-09 15:19 | 40.64431 | -73.77558 | 25 ft | 0 kts | 327° |
| 2026-05-09 15:39 | 40.64431 | -73.77557 | 25 ft | 1 kts | 327° |
| 2026-05-09 15:39 | 40.64414 | -73.77544 | 23 ft | 3 kts | 326° |
| 2026-05-09 15:39 | 40.64401 | -73.77523 | 24 ft | 3 kts | 308° |
| 2026-05-09 15:39 | 40.64386 | -73.77510 | 23 ft | 4 kts | 23° |
| 2026-05-09 15:40 | 40.64364 | -73.77525 | 24 ft | 3 kts | 30° |
| 2026-05-09 15:40 | 40.64360 | -73.77528 | 23 ft | 0 kts | 30° |
| 2026-05-09 15:43 | 40.64380 | -73.77513 | 24 ft | 7 kts | 30° |
| 2026-05-09 15:43 | 40.64444 | -73.77465 | 23 ft | 13 kts | 30° |
| 2026-05-09 15:43 | 40.64472 | -73.77361 | 23 ft | 13 kts | 90° |
| 2026-05-09 15:43 | 40.64470 | -73.77236 | 23 ft | 14 kts | 102° |
| 2026-05-09 15:44 | 40.64434 | -73.77114 | 22 ft | 15 kts | 102° |
| 2026-05-09 15:44 | 40.64461 | -73.76995 | 19 ft | 16 kts | 18° |
| 2026-05-09 15:44 | 40.64567 | -73.76941 | 19 ft | 17 kts | 31° |
| 2026-05-09 15:44 | 40.64673 | -73.76858 | 18 ft | 18 kts | 31° |
| 2026-05-09 15:45 | 40.64783 | -73.76772 | 20 ft | 18 kts | 30° |
| 2026-05-09 15:45 | 40.64887 | -73.76692 | 23 ft | 17 kts | 31° |
| 2026-05-09 15:45 | 40.64992 | -73.76610 | 23 ft | 18 kts | 31° |
| 2026-05-09 15:45 | 40.65089 | -73.76509 | 23 ft | 17 kts | 60° |
| 2026-05-09 15:46 | 40.65056 | -73.76377 | 24 ft | 15 kts | 137° |
| 2026-05-09 15:46 | 40.64964 | -73.76402 | 22 ft | 15 kts | 211° |
| 2026-05-09 15:46 | 40.64742 | -73.76575 | 22 ft | 72 kts | 211° |
| 2026-05-09 15:46 | 40.64116 | -73.77064 | 24 ft | 135 kts | 211° |
| 2026-05-09 15:47 | 40.63165 | -73.77810 | 50 ft | 179 kts | 210° |
| 2026-05-09 15:47 | 40.62136 | -73.78621 | 755 ft | 171 kts | 209° |
| 2026-05-09 15:47 | 40.61099 | -73.79446 | 1363 ft | 179 kts | 209° |
| 2026-05-09 15:47 | 40.60017 | -73.80309 | 1892 ft | 183 kts | 209° |
| 2026-05-09 15:48 | 40.58926 | -73.81182 | 2427 ft | 183 kts | 208° |
| 2026-05-09 15:48 | 40.57847 | -73.82053 | 3011 ft | 180 kts | 208° |
| 2026-05-09 15:48 | 40.56731 | -73.82780 | 3416 ft | 186 kts | 193° |
| 2026-05-09 15:48 | 40.55366 | -73.82549 | 3540 ft | 220 kts | 158° |
| 2026-05-09 15:49 | 40.54207 | -73.81002 | 3787 ft | 257 kts | 129° |
| 2026-05-09 15:49 | 40.53312 | -73.78912 | 4397 ft | 267 kts | 123° |
| 2026-05-09 15:49 | 40.52518 | -73.76716 | 5126 ft | 272 kts | 121° |
| 2026-05-09 15:49 | 40.51730 | -73.74440 | 5873 ft | 276 kts | 121° |
| 2026-05-09 15:50 | 40.50929 | -73.72135 | 6597 ft | 279 kts | 121° |
| 2026-05-09 15:50 | 40.50102 | -73.69817 | 7307 ft | 282 kts | 122° |
| 2026-05-09 15:50 | 40.49247 | -73.67484 | 8026 ft | 284 kts | 122° |
| 2026-05-09 15:50 | 40.48368 | -73.65134 | 8738 ft | 288 kts | 122° |
| 2026-05-09 15:51 | 40.47476 | -73.62772 | 9438 ft | 291 kts | 123° |
| 2026-05-09 15:51 | 40.46569 | -73.60380 | 10108 ft | 295 kts | 122° |
| 2026-05-09 15:51 | 40.45617 | -73.57891 | 10368 ft | 316 kts | 122° |
| 2026-05-09 15:51 | 40.44602 | -73.55265 | 10508 ft | 338 kts | 122° |
| 2026-05-09 15:52 | 40.42421 | -73.49589 | 11509 ft | 355 kts | 122° |
| 2026-05-09 15:52 | 40.41312 | -73.46673 | 12113 ft | 359 kts | 121° |
| 2026-05-09 15:52 | 40.40194 | -73.43720 | 12693 ft | 364 kts | 121° |
| 2026-05-09 15:53 | 40.39059 | -73.40727 | 13256 ft | 369 kts | 121° |
| 2026-05-09 15:53 | 40.37908 | -73.37696 | 13787 ft | 374 kts | 121° |
| 2026-05-09 15:53 | 40.36736 | -73.34626 | 14328 ft | 378 kts | 121° |
| 2026-05-09 15:53 | 40.35566 | -73.31572 | 14840 ft | 383 kts | 121° |
| 2026-05-09 15:54 | 40.34360 | -73.28438 | 15379 ft | 387 kts | 121° |
| 2026-05-09 15:54 | 40.33135 | -73.25269 | 15903 ft | 392 kts | 123° |
| 2026-05-09 15:54 | 40.31705 | -73.22232 | 16419 ft | 394 kts | 128° |
| 2026-05-09 15:54 | 40.30198 | -73.19210 | 16925 ft | 398 kts | 128° |
| 2026-05-09 15:55 | 40.28674 | -73.16157 | 17432 ft | 403 kts | 128° |
| 2026-05-09 15:55 | 40.27132 | -73.13071 | 17925 ft | 407 kts | 128° |
| 2026-05-09 15:55 | 40.25572 | -73.09949 | 18401 ft | 412 kts | 128° |
| 2026-05-09 15:55 | 40.24000 | -73.06800 | 18894 ft | 416 kts | 128° |
| 2026-05-09 15:56 | 40.22434 | -73.03666 | 19380 ft | 419 kts | 128° |
| 2026-05-09 15:56 | 40.20835 | -73.00462 | 19888 ft | 422 kts | 128° |
| 2026-05-09 15:56 | 40.19225 | -72.97236 | 20379 ft | 425 kts | 128° |
| 2026-05-09 15:56 | 40.17600 | -72.93988 | 20864 ft | 428 kts | 128° |
| 2026-05-09 15:57 | 40.15959 | -72.90723 | 21338 ft | 431 kts | 128° |
| 2026-05-09 15:57 | 40.14301 | -72.87433 | 21798 ft | 435 kts | 128° |
| 2026-05-09 15:57 | 40.12633 | -72.84123 | 22252 ft | 438 kts | 128° |
| 2026-05-09 15:57 | 40.10954 | -72.80788 | 22686 ft | 441 kts | 129° |
| 2026-05-09 15:58 | 40.09052 | -72.77693 | 23082 ft | 434 kts | 143° |
| 2026-05-09 15:58 | 40.06691 | -72.75422 | 23464 ft | 423 kts | 159° |
| 2026-05-09 15:58 | 40.03996 | -72.74001 | 23843 ft | 416 kts | 169° |
| 2026-05-09 15:58 | 40.01233 | -72.72868 | 24233 ft | 418 kts | 170° |
| 2026-05-09 15:59 | 39.98447 | -72.71747 | 24610 ft | 420 kts | 170° |
| 2026-05-09 15:59 | 39.95645 | -72.70630 | 24977 ft | 423 kts | 170° |
| 2026-05-09 15:59 | 39.92827 | -72.69504 | 25349 ft | 425 kts | 170° |
| 2026-05-09 15:59 | 39.89996 | -72.68368 | 25710 ft | 427 kts | 170° |
| 2026-05-09 16:00 | 39.87149 | -72.67223 | 26069 ft | 429 kts | 170° |
| 2026-05-09 16:00 | 39.86222 | -72.66849 | 26191 ft | 430 kts | 170° |
| 2026-05-09 16:00 | 39.81455 | -72.64917 | 26759 ft | 433 kts | 170° |
| 2026-05-09 16:00 | 39.78571 | -72.63752 | 27094 ft | 435 kts | 170° |
| 2026-05-09 16:01 | 39.75669 | -72.62576 | 27423 ft | 438 kts | 170° |
| 2026-05-09 16:01 | 39.72757 | -72.61397 | 27747 ft | 439 kts | 170° |
| 2026-05-09 16:01 | 39.69831 | -72.60217 | 28060 ft | 441 kts | 170° |
| 2026-05-09 16:01 | 39.66891 | -72.59038 | 28368 ft | 443 kts | 170° |
| 2026-05-09 16:02 | 39.63939 | -72.57856 | 28671 ft | 445 kts | 170° |
| 2026-05-09 16:02 | 39.58038 | -72.55499 | 29245 ft | 449 kts | 170° |
| 2026-05-09 16:02 | 39.55052 | -72.54299 | 29530 ft | 451 kts | 170° |
| 2026-05-09 16:03 | 39.52051 | -72.53092 | 29809 ft | 452 kts | 170° |
| 2026-05-09 16:03 | 39.49040 | -72.51886 | 30088 ft | 454 kts | 170° |
| 2026-05-09 16:03 | 39.46015 | -72.50673 | 30375 ft | 456 kts | 170° |
| 2026-05-09 16:03 | 39.42986 | -72.49458 | 30654 ft | 457 kts | 170° |
| 2026-05-09 16:04 | 39.39943 | -72.48243 | 30954 ft | 458 kts | 171° |
| 2026-05-09 16:04 | 39.36906 | -72.47035 | 31340 ft | 456 kts | 171° |
| 2026-05-09 16:04 | 39.33876 | -72.45832 | 31714 ft | 455 kts | 171° |
| 2026-05-09 16:04 | 39.30893 | -72.44649 | 32077 ft | 454 kts | 172° |
| 2026-05-09 16:05 | 39.27881 | -72.43455 | 32438 ft | 453 kts | 172° |
| 2026-05-09 16:05 | 39.24874 | -72.42262 | 32773 ft | 452 kts | 172° |
| 2026-05-09 16:05 | 39.21871 | -72.41072 | 33103 ft | 451 kts | 172° |
| 2026-05-09 16:05 | 39.18873 | -72.39887 | 33430 ft | 450 kts | 173° |
| 2026-05-09 16:06 | 39.15886 | -72.38703 | 33746 ft | 449 kts | 173° |
| 2026-05-09 16:06 | 39.12902 | -72.37519 | 34068 ft | 448 kts | 173° |
| 2026-05-09 16:06 | 39.09925 | -72.36341 | 34374 ft | 447 kts | 174° |
| 2026-05-09 16:06 | 39.06947 | -72.35165 | 34633 ft | 448 kts | 174° |
| 2026-05-09 16:07 | 39.03969 | -72.33987 | 34889 ft | 448 kts | 174° |
| 2026-05-09 16:07 | 39.01026 | -72.32827 | 34999 ft | 448 kts | 174° |
| 2026-05-09 16:07 | 38.95094 | -72.30483 | 35021 ft | 445 kts | 174° |
| 2026-05-09 16:08 | 38.89179 | -72.28162 | 35017 ft | 445 kts | 174° |
| 2026-05-09 16:08 | 38.83253 | -72.25846 | 35017 ft | 445 kts | 175° |
| 2026-05-09 16:09 | 38.77319 | -72.23526 | 35027 ft | 446 kts | 175° |
| 2026-05-09 16:09 | 38.71429 | -72.21220 | 35027 ft | 445 kts | 175° |
| 2026-05-09 16:10 | 38.65496 | -72.18904 | 35030 ft | 446 kts | 175° |
| 2026-05-09 16:10 | 38.59558 | -72.16590 | 35034 ft | 446 kts | 175° |
| 2026-05-09 16:11 | 38.53615 | -72.14287 | 35028 ft | 447 kts | 175° |
| 2026-05-09 16:11 | 38.47667 | -72.11979 | 35030 ft | 447 kts | 175° |
| 2026-05-09 16:12 | 38.41754 | -72.09691 | 35034 ft | 448 kts | 175° |
| 2026-05-09 16:12 | 38.35793 | -72.07386 | 35038 ft | 448 kts | 175° |
| 2026-05-09 16:13 | 38.29835 | -72.05073 | 35029 ft | 448 kts | 176° |
| 2026-05-09 16:13 | 38.23869 | -72.02775 | 35024 ft | 448 kts | 176° |
| 2026-05-09 16:14 | 38.17935 | -72.00494 | 35030 ft | 449 kts | 176° |
| 2026-05-09 16:14 | 38.11950 | -71.98189 | 35037 ft | 450 kts | 176° |
| 2026-05-09 16:15 | 38.05955 | -71.95893 | 35044 ft | 449 kts | 176° |
| 2026-05-09 16:15 | 37.99967 | -71.93600 | 35042 ft | 450 kts | 176° |
| 2026-05-09 16:16 | 37.94017 | -71.91319 | 35041 ft | 450 kts | 176° |
| 2026-05-09 16:16 | 37.88030 | -71.89035 | 35041 ft | 449 kts | 176° |
| 2026-05-09 16:17 | 37.82040 | -71.86751 | 35043 ft | 450 kts | 176° |
| 2026-05-09 16:17 | 37.76040 | -71.84471 | 35045 ft | 450 kts | 176° |
| 2026-05-09 16:18 | 37.70051 | -71.82206 | 35044 ft | 450 kts | 176° |
| 2026-05-09 16:18 | 37.64096 | -71.79945 | 35047 ft | 450 kts | 176° |
| 2026-05-09 16:19 | 37.58100 | -71.77671 | 35046 ft | 450 kts | 176° |
| 2026-05-09 16:19 | 37.52105 | -71.75412 | 35045 ft | 450 kts | 176° |
| 2026-05-09 16:20 | 37.46114 | -71.73156 | 35040 ft | 449 kts | 176° |
| 2026-05-09 16:20 | 37.40162 | -71.70975 | 35030 ft | 443 kts | 181° |
| 2026-05-09 16:21 | 37.37175 | -71.70356 | 35026 ft | 428 kts | 188° |
| 2026-05-09 16:21 | 37.34215 | -71.70050 | 35025 ft | 427 kts | 188° |
| 2026-05-09 16:21 | 37.28283 | -71.69450 | 35016 ft | 429 kts | 188° |
| 2026-05-09 16:22 | 37.22325 | -71.68826 | 35015 ft | 430 kts | 188° |
| 2026-05-09 16:22 | 37.16352 | -71.68202 | 35017 ft | 431 kts | 188° |
| 2026-05-09 16:23 | 37.10413 | -71.67579 | 35017 ft | 431 kts | 188° |
| 2026-05-09 16:23 | 37.07434 | -71.67267 | 35134 ft | 429 kts | 188° |
| 2026-05-09 16:23 | 37.04455 | -71.66958 | 35385 ft | 430 kts | 189° |
| 2026-05-09 16:24 | 37.01476 | -71.66652 | 35640 ft | 429 kts | 189° |
| 2026-05-09 16:24 | 36.98503 | -71.66346 | 35871 ft | 429 kts | 189° |
| 2026-05-09 16:24 | 36.95528 | -71.66041 | 35995 ft | 429 kts | 189° |
| 2026-05-09 16:24 | 36.92555 | -71.65738 | 36016 ft | 428 kts | 189° |
| 2026-05-09 16:25 | 36.86615 | -71.65128 | 36017 ft | 428 kts | 189° |
| 2026-05-09 16:25 | 36.80721 | -71.64517 | 36026 ft | 428 kts | 189° |
| 2026-05-09 16:26 | 36.74792 | -71.63908 | 36027 ft | 428 kts | 189° |
| 2026-05-09 16:26 | 36.68858 | -71.63296 | 36028 ft | 428 kts | 189° |
| 2026-05-09 16:27 | 36.62916 | -71.62696 | 36035 ft | 429 kts | 189° |
| 2026-05-09 16:27 | 36.57008 | -71.62098 | 36046 ft | 429 kts | 189° |
| 2026-05-09 16:28 | 36.51061 | -71.61481 | 36047 ft | 429 kts | 189° |
| 2026-05-09 16:28 | 36.45118 | -71.60867 | 36053 ft | 429 kts | 189° |
| 2026-05-09 16:29 | 36.39170 | -71.60256 | 36032 ft | 429 kts | 189° |
| 2026-05-09 16:29 | 36.33261 | -71.59656 | 36032 ft | 429 kts | 189° |
| 2026-05-09 16:30 | 36.27302 | -71.59058 | 36035 ft | 430 kts | 189° |
| 2026-05-09 16:30 | 36.21337 | -71.58456 | 36050 ft | 430 kts | 189° |
| 2026-05-09 16:31 | 36.15365 | -71.57853 | 36037 ft | 430 kts | 189° |
| 2026-05-09 16:31 | 36.09399 | -71.57250 | 36037 ft | 430 kts | 189° |
| 2026-05-09 16:32 | 36.04442 | -71.56753 | 36041 ft | 429 kts | 189° |
| 2026-05-09 16:32 | 35.97518 | -71.56063 | 36043 ft | 430 kts | 189° |
| 2026-05-09 16:33 | 35.91551 | -71.55454 | 36047 ft | 431 kts | 189° |
| 2026-05-09 16:33 | 35.85574 | -71.54848 | 36044 ft | 431 kts | 189° |
| 2026-05-09 16:34 | 35.79633 | -71.54245 | 36051 ft | 431 kts | 189° |
| 2026-05-09 16:34 | 35.73650 | -71.53654 | 36051 ft | 432 kts | 189° |
| 2026-05-09 16:35 | 35.67661 | -71.53053 | 36048 ft | 432 kts | 189° |
| 2026-05-09 16:35 | 35.61639 | -71.52124 | 36055 ft | 445 kts | 182° |
| 2026-05-09 16:36 | 35.49523 | -71.49012 | 36052 ft | 447 kts | 182° |
| 2026-05-09 16:37 | 35.43435 | -71.47444 | 36049 ft | 447 kts | 182° |
| 2026-05-09 16:37 | 35.37342 | -71.45887 | 36047 ft | 448 kts | 182° |
| 2026-05-09 16:38 | 35.31237 | -71.44337 | 36042 ft | 448 kts | 182° |
| 2026-05-09 16:38 | 35.25162 | -71.42783 | 36047 ft | 449 kts | 182° |
| 2026-05-09 16:39 | 35.19043 | -71.41218 | 36054 ft | 450 kts | 182° |
| 2026-05-09 16:39 | 35.12911 | -71.39658 | 36054 ft | 451 kts | 182° |
| 2026-05-09 16:40 | 35.06766 | -71.38095 | 36060 ft | 451 kts | 181° |
| 2026-05-09 16:42 | 34.82132 | -71.31879 | 36064 ft | 454 kts | 181° |
| 2026-05-09 16:42 | 34.75945 | -71.30318 | 36071 ft | 455 kts | 181° |
| 2026-05-09 16:43 | 34.69783 | -71.28771 | 36068 ft | 455 kts | 181° |
| 2026-05-09 16:43 | 34.63570 | -71.27220 | 36074 ft | 456 kts | 181° |
| 2026-05-09 16:44 | 34.57355 | -71.25660 | 36074 ft | 456 kts | 181° |
| 2026-05-09 16:44 | 34.51138 | -71.24102 | 36072 ft | 456 kts | 181° |
| 2026-05-09 16:45 | 34.44959 | -71.22560 | 36072 ft | 457 kts | 181° |
| 2026-05-09 16:45 | 34.38723 | -71.21007 | 36077 ft | 458 kts | 181° |
| 2026-05-09 16:46 | 34.32481 | -71.19455 | 36079 ft | 458 kts | 181° |
| 2026-05-09 16:46 | 34.26240 | -71.17901 | 36077 ft | 458 kts | 181° |
| 2026-05-09 16:47 | 34.20041 | -71.16356 | 36072 ft | 458 kts | 181° |
| 2026-05-09 16:47 | 34.13790 | -71.14807 | 36078 ft | 459 kts | 181° |
| 2026-05-09 16:48 | 34.07535 | -71.13260 | 36083 ft | 459 kts | 181° |
| 2026-05-09 16:48 | 34.01275 | -71.11718 | 36086 ft | 459 kts | 181° |
| 2026-05-09 16:49 | 33.95050 | -71.10178 | 36082 ft | 460 kts | 180° |
| 2026-05-09 16:50 | 33.85631 | -71.07857 | 36071 ft | 462 kts | 180° |
| 2026-05-09 16:50 | 33.79330 | -71.06310 | 36075 ft | 462 kts | 181° |
| 2026-05-09 16:51 | 33.73027 | -71.04763 | 36077 ft | 463 kts | 180° |
| 2026-05-09 16:51 | 33.66717 | -71.03213 | 36082 ft | 463 kts | 180° |
| 2026-05-09 16:52 | 33.60439 | -71.01675 | 36091 ft | 463 kts | 180° |
| 2026-05-09 16:52 | 33.54121 | -71.00124 | 36096 ft | 464 kts | 180° |
| 2026-05-09 16:53 | 33.47797 | -70.98595 | 36098 ft | 464 kts | 181° |
| 2026-05-09 16:53 | 33.41475 | -70.97053 | 36099 ft | 464 kts | 180° |
| 2026-05-09 16:54 | 33.35193 | -70.95519 | 36101 ft | 464 kts | 180° |
| 2026-05-09 16:54 | 33.28865 | -70.93976 | 36102 ft | 464 kts | 180° |
| 2026-05-09 16:55 | 33.22535 | -70.92449 | 36101 ft | 464 kts | 180° |
| 2026-05-09 16:55 | 33.16251 | -70.90931 | 36107 ft | 464 kts | 180° |
| 2026-05-09 16:56 | 33.09917 | -70.89397 | 36111 ft | 464 kts | 180° |
| 2026-05-09 16:56 | 33.03590 | -70.87871 | 36113 ft | 464 kts | 180° |
| 2026-05-09 16:57 | 32.97260 | -70.86347 | 36114 ft | 464 kts | 180° |
| 2026-05-09 16:57 | 32.90971 | -70.84834 | 36114 ft | 464 kts | 180° |
| 2026-05-09 16:58 | 32.84638 | -70.83303 | 36115 ft | 464 kts | 180° |
| 2026-05-09 16:58 | 32.78304 | -70.81776 | 36115 ft | 465 kts | 180° |
| 2026-05-09 16:59 | 32.71969 | -70.80258 | 36112 ft | 465 kts | 180° |
| 2026-05-09 16:59 | 32.65630 | -70.78739 | 36110 ft | 465 kts | 180° |
| 2026-05-09 17:00 | 32.59332 | -70.77233 | 36105 ft | 465 kts | 180° |
| 2026-05-09 17:00 | 32.52986 | -70.75725 | 36107 ft | 465 kts | 180° |
| 2026-05-09 17:01 | 32.46634 | -70.74213 | 36107 ft | 466 kts | 180° |
| 2026-05-09 17:01 | 32.40281 | -70.72696 | 36115 ft | 465 kts | 180° |
| 2026-05-09 17:02 | 32.33977 | -70.71197 | 36123 ft | 465 kts | 180° |
| 2026-05-09 17:02 | 32.27635 | -70.69692 | 36122 ft | 465 kts | 180° |
| 2026-05-09 17:03 | 32.21293 | -70.68188 | 36126 ft | 465 kts | 180° |
| 2026-05-09 17:05 | 31.95957 | -70.62201 | 36118 ft | 465 kts | 180° |
| 2026-05-09 17:05 | 31.89614 | -70.60711 | 36120 ft | 465 kts | 180° |
| 2026-05-09 17:06 | 31.83308 | -70.59239 | 36123 ft | 465 kts | 180° |
| 2026-05-09 17:06 | 31.76957 | -70.57750 | 36121 ft | 465 kts | 180° |
| 2026-05-09 17:07 | 31.70606 | -70.56252 | 36117 ft | 466 kts | 180° |
| 2026-05-09 17:07 | 31.64247 | -70.54761 | 36116 ft | 466 kts | 180° |
| 2026-05-09 17:08 | 31.57930 | -70.53290 | 36123 ft | 466 kts | 180° |
| 2026-05-09 17:08 | 31.48387 | -70.51058 | 36123 ft | 466 kts | 180° |
| 2026-05-09 17:09 | 31.42026 | -70.49578 | 36123 ft | 466 kts | 180° |
| 2026-05-09 17:09 | 31.35663 | -70.48112 | 36127 ft | 466 kts | 180° |
| 2026-05-09 17:10 | 31.29341 | -70.46641 | 36126 ft | 467 kts | 179° |
| 2026-05-09 17:10 | 31.22971 | -70.45154 | 36136 ft | 467 kts | 179° |
| 2026-05-09 17:11 | 31.16603 | -70.43676 | 36134 ft | 467 kts | 179° |
| 2026-05-09 17:11 | 31.10230 | -70.42203 | 36125 ft | 467 kts | 179° |
| 2026-05-09 17:12 | 31.03893 | -70.40739 | 36137 ft | 468 kts | 179° |
| 2026-05-09 17:12 | 30.97510 | -70.39263 | 36138 ft | 468 kts | 179° |
| 2026-05-09 17:13 | 30.91126 | -70.37796 | 36138 ft | 467 kts | 179° |
| 2026-05-09 17:13 | 30.84745 | -70.36340 | 36135 ft | 467 kts | 179° |
| 2026-05-09 17:14 | 30.78404 | -70.34889 | 36131 ft | 468 kts | 179° |
| 2026-05-09 17:14 | 30.72009 | -70.33420 | 36133 ft | 468 kts | 178° |
| 2026-05-09 17:15 | 30.65620 | -70.31943 | 36136 ft | 468 kts | 178° |
| 2026-05-09 17:15 | 30.59232 | -70.30480 | 36129 ft | 468 kts | 178° |
| 2026-05-09 17:17 | 30.33726 | -70.24664 | 36115 ft | 468 kts | 178° |
| 2026-05-09 17:18 | 30.27376 | -70.23214 | 36115 ft | 468 kts | 178° |
| 2026-05-09 17:18 | 30.20979 | -70.21767 | 36110 ft | 468 kts | 178° |
| 2026-05-09 17:19 | 30.14582 | -70.20317 | 36110 ft | 469 kts | 178° |
| 2026-05-09 17:19 | 30.08184 | -70.18875 | 36113 ft | 469 kts | 178° |
| 2026-05-09 17:20 | 30.01828 | -70.17433 | 36121 ft | 468 kts | 178° |
| 2026-05-09 17:20 | 29.95431 | -70.15992 | 36118 ft | 468 kts | 178° |
| 2026-05-09 17:21 | 29.89035 | -70.14560 | 36121 ft | 468 kts | 178° |
| 2026-05-09 17:21 | 29.82647 | -70.13114 | 36115 ft | 468 kts | 178° |
| 2026-05-09 17:22 | 29.76303 | -70.11683 | 36113 ft | 468 kts | 178° |
| 2026-05-09 17:22 | 29.69910 | -70.10259 | 36116 ft | 468 kts | 178° |
| 2026-05-09 17:23 | 29.63511 | -70.08835 | 36110 ft | 468 kts | 178° |
| 2026-05-09 17:23 | 29.57111 | -70.07390 | 36112 ft | 469 kts | 177° |
| 2026-05-09 17:25 | 29.37926 | -70.03090 | 36118 ft | 470 kts | 178° |
| 2026-05-09 17:25 | 29.31510 | -70.01664 | 36109 ft | 469 kts | 177° |
| 2026-05-09 17:26 | 29.25135 | -70.00251 | 36113 ft | 470 kts | 177° |
| 2026-05-09 17:26 | 29.18714 | -69.98827 | 36113 ft | 470 kts | 177° |
| 2026-05-09 17:27 | 29.12291 | -69.97398 | 36117 ft | 470 kts | 177° |
| 2026-05-09 17:27 | 29.06948 | -69.96211 | 36116 ft | 471 kts | 177° |
| 2026-05-09 17:28 | 28.99471 | -69.94549 | 36120 ft | 471 kts | 177° |
| 2026-05-09 17:28 | 28.93034 | -69.93123 | 36111 ft | 471 kts | 177° |
| 2026-05-09 17:29 | 28.86599 | -69.91710 | 36109 ft | 471 kts | 177° |
| 2026-05-09 17:29 | 28.81245 | -69.90536 | 36107 ft | 472 kts | 176° |
| 2026-05-09 17:30 | 28.73756 | -69.88883 | 36109 ft | 472 kts | 176° |
| 2026-05-09 17:30 | 28.67310 | -69.87461 | 36105 ft | 472 kts | 176° |
| 2026-05-09 17:31 | 28.61951 | -69.86273 | 36105 ft | 472 kts | 176° |
| 2026-05-09 17:32 | 28.44770 | -69.82516 | 36107 ft | 472 kts | 176° |
| 2026-05-09 17:33 | 28.39409 | -69.81341 | 36105 ft | 472 kts | 176° |
| 2026-05-09 17:33 | 28.32963 | -69.79927 | 36106 ft | 472 kts | 176° |
| 2026-05-09 17:34 | 28.26515 | -69.78529 | 36102 ft | 472 kts | 176° |
| 2026-05-09 17:35 | 28.03968 | -69.73606 | 36104 ft | 473 kts | 176° |
| 2026-05-09 17:36 | 27.97507 | -69.72208 | 36112 ft | 473 kts | 176° |
| 2026-05-09 17:36 | 27.91036 | -69.70816 | 36120 ft | 474 kts | 176° |
| 2026-05-09 17:37 | 27.84608 | -69.69425 | 36123 ft | 474 kts | 176° |
| 2026-05-09 17:37 | 27.78137 | -69.68022 | 36121 ft | 473 kts | 176° |
| 2026-05-09 17:38 | 27.71666 | -69.66624 | 36121 ft | 473 kts | 176° |
| 2026-05-09 17:39 | 27.61962 | -69.64527 | 36113 ft | 473 kts | 176° |
| 2026-05-09 17:39 | 27.55540 | -69.63137 | 36115 ft | 473 kts | 176° |
| 2026-05-09 17:40 | 27.49070 | -69.61751 | 36110 ft | 473 kts | 176° |
| 2026-05-09 17:40 | 27.42601 | -69.60363 | 36106 ft | 473 kts | 175° |
| 2026-05-09 17:41 | 27.36129 | -69.58965 | 36108 ft | 474 kts | 175° |
| 2026-05-09 17:41 | 27.29696 | -69.57586 | 36107 ft | 474 kts | 175° |
| 2026-05-09 17:42 | 27.23214 | -69.56212 | 36106 ft | 474 kts | 175° |
| 2026-05-09 17:42 | 27.16729 | -69.54832 | 36107 ft | 474 kts | 175° |
| 2026-05-09 17:43 | 27.10239 | -69.53443 | 36107 ft | 475 kts | 175° |
| 2026-05-09 17:43 | 27.03793 | -69.52061 | 36107 ft | 475 kts | 175° |
| 2026-05-09 17:44 | 26.97299 | -69.50670 | 36104 ft | 475 kts | 175° |
| 2026-05-09 17:44 | 26.90807 | -69.49280 | 36105 ft | 475 kts | 175° |
| 2026-05-09 17:45 | 26.84312 | -69.47908 | 36108 ft | 475 kts | 175° |
| 2026-05-09 17:45 | 26.77852 | -69.46541 | 36109 ft | 476 kts | 175° |
| 2026-05-09 17:46 | 26.71340 | -69.45165 | 36110 ft | 476 kts | 175° |
| 2026-05-09 17:46 | 26.64828 | -69.43782 | 36113 ft | 477 kts | 174° |
| 2026-05-09 17:47 | 26.58315 | -69.42396 | 36113 ft | 476 kts | 175° |
| 2026-05-09 17:47 | 26.51845 | -69.41033 | 36117 ft | 477 kts | 174° |
| 2026-05-09 17:48 | 26.45325 | -69.39659 | 36119 ft | 477 kts | 174° |
| 2026-05-09 17:48 | 26.38809 | -69.38277 | 36123 ft | 477 kts | 174° |
| 2026-05-09 17:49 | 26.32291 | -69.36902 | 36127 ft | 477 kts | 175° |
| 2026-05-09 17:49 | 26.25813 | -69.35541 | 36126 ft | 477 kts | 174° |
| 2026-05-09 17:50 | 26.19293 | -69.34179 | 36125 ft | 477 kts | 174° |
| 2026-05-09 17:50 | 26.09515 | -69.32122 | 36116 ft | 477 kts | 174° |
| 2026-05-09 17:51 | 26.03040 | -69.30772 | 36117 ft | 477 kts | 174° |
| 2026-05-09 17:51 | 25.96521 | -69.29410 | 36115 ft | 477 kts | 174° |
| 2026-05-09 17:52 | 25.90005 | -69.28042 | 36111 ft | 476 kts | 174° |
| 2026-05-09 17:52 | 25.83487 | -69.26676 | 36110 ft | 477 kts | 174° |
| 2026-05-09 17:53 | 25.77017 | -69.25318 | 36111 ft | 477 kts | 174° |
| 2026-05-09 17:53 | 25.70500 | -69.23960 | 36111 ft | 477 kts | 174° |
| 2026-05-09 17:54 | 25.63977 | -69.22611 | 36107 ft | 477 kts | 174° |
| 2026-05-09 17:54 | 25.57456 | -69.21258 | 36111 ft | 477 kts | 174° |
| 2026-05-09 17:55 | 25.50973 | -69.19908 | 36111 ft | 477 kts | 174° |
| 2026-05-09 17:55 | 25.44446 | -69.18556 | 36109 ft | 477 kts | 174° |
| 2026-05-09 17:56 | 25.37919 | -69.17212 | 36109 ft | 477 kts | 174° |
| 2026-05-09 17:57 | 25.28178 | -69.15186 | 36108 ft | 477 kts | 173° |
| 2026-05-09 17:57 | 25.21656 | -69.13833 | 36106 ft | 477 kts | 173° |
| 2026-05-09 17:58 | 25.15132 | -69.12497 | 36109 ft | 477 kts | 173° |
| 2026-05-09 17:58 | 25.08613 | -69.11152 | 36110 ft | 477 kts | 173° |
| 2026-05-09 17:59 | 25.02139 | -69.09818 | 36105 ft | 477 kts | 173° |
| 2026-05-09 17:59 | 24.95623 | -69.08413 | 36101 ft | 477 kts | 172° |
| 2026-05-09 18:00 | 24.89142 | -69.06789 | 36100 ft | 478 kts | 170° |
| 2026-05-09 18:00 | 24.82665 | -69.05126 | 36100 ft | 478 kts | 171° |
| 2026-05-09 18:01 | 24.76224 | -69.03526 | 36098 ft | 478 kts | 171° |
| 2026-05-09 18:01 | 24.69730 | -69.01952 | 36101 ft | 478 kts | 171° |
| 2026-05-09 18:02 | 24.63244 | -69.00380 | 36098 ft | 477 kts | 171° |
| 2026-05-09 18:02 | 24.56759 | -68.98800 | 36097 ft | 477 kts | 171° |
| 2026-05-09 18:03 | 24.50276 | -68.97222 | 36100 ft | 477 kts | 171° |
| 2026-05-09 18:03 | 24.43839 | -68.95654 | 36098 ft | 477 kts | 171° |
| 2026-05-09 18:04 | 24.37355 | -68.94074 | 36094 ft | 477 kts | 171° |
| 2026-05-09 18:04 | 24.30874 | -68.92474 | 36095 ft | 477 kts | 171° |
| 2026-05-09 18:05 | 24.24395 | -68.90876 | 36098 ft | 477 kts | 171° |
| 2026-05-09 18:05 | 24.17964 | -68.89289 | 36098 ft | 477 kts | 170° |
| 2026-05-09 18:06 | 24.11489 | -68.87700 | 36094 ft | 477 kts | 171° |
| 2026-05-09 18:06 | 24.05013 | -68.86107 | 36090 ft | 477 kts | 170° |
| 2026-05-09 18:07 | 23.98535 | -68.84514 | 36090 ft | 477 kts | 170° |
| 2026-05-09 18:07 | 23.92103 | -68.82932 | 36090 ft | 477 kts | 170° |
| 2026-05-09 18:08 | 23.85629 | -68.81354 | 36093 ft | 477 kts | 170° |
| 2026-05-09 18:08 | 23.79155 | -68.79780 | 36093 ft | 476 kts | 170° |
| 2026-05-09 18:09 | 23.72685 | -68.78198 | 36091 ft | 476 kts | 170° |
| 2026-05-09 18:09 | 23.66261 | -68.76619 | 36090 ft | 476 kts | 170° |
| 2026-05-09 18:10 | 23.59789 | -68.75041 | 36092 ft | 476 kts | 170° |
| 2026-05-09 18:10 | 23.53334 | -68.73375 | 36092 ft | 477 kts | 168° |
| 2026-05-09 18:11 | 23.46916 | -68.71504 | 36092 ft | 478 kts | 167° |
| 2026-05-09 18:11 | 23.40552 | -68.69617 | 36095 ft | 477 kts | 167° |
| 2026-05-09 18:12 | 23.34130 | -68.67764 | 36094 ft | 477 kts | 167° |
| 2026-05-09 18:12 | 23.27710 | -68.65955 | 36094 ft | 477 kts | 168° |
| 2026-05-09 18:13 | 23.21288 | -68.64141 | 36094 ft | 477 kts | 167° |
| 2026-05-09 18:13 | 23.14916 | -68.62330 | 36096 ft | 477 kts | 167° |
| 2026-05-09 18:14 | 23.08500 | -68.60500 | 36097 ft | 477 kts | 167° |
| 2026-05-09 18:14 | 23.02087 | -68.58675 | 36093 ft | 476 kts | 167° |
| 2026-05-09 18:15 | 22.95679 | -68.56858 | 36091 ft | 475 kts | 167° |
| 2026-05-09 18:15 | 22.89327 | -68.55061 | 36089 ft | 475 kts | 167° |
| 2026-05-09 18:16 | 22.82939 | -68.53256 | 36089 ft | 474 kts | 167° |
| 2026-05-09 18:16 | 22.76560 | -68.51448 | 36089 ft | 474 kts | 167° |
| 2026-05-09 18:17 | 22.70185 | -68.49647 | 36086 ft | 473 kts | 167° |
| 2026-05-09 18:17 | 22.63815 | -68.47852 | 36084 ft | 473 kts | 167° |
| 2026-05-09 18:18 | 22.57486 | -68.46066 | 36083 ft | 473 kts | 167° |
| 2026-05-09 18:18 | 22.51118 | -68.44274 | 36084 ft | 473 kts | 167° |
| 2026-05-09 18:19 | 22.44754 | -68.42492 | 36083 ft | 472 kts | 167° |
| 2026-05-09 18:19 | 22.35219 | -68.39813 | 36082 ft | 472 kts | 167° |
| 2026-05-09 18:20 | 22.28912 | -68.38033 | 36083 ft | 471 kts | 167° |
| 2026-05-09 18:20 | 22.22562 | -68.36257 | 36083 ft | 471 kts | 167° |
| 2026-05-09 18:21 | 22.16209 | -68.34485 | 36083 ft | 471 kts | 167° |
| 2026-05-09 18:21 | 22.09861 | -68.32707 | 36080 ft | 471 kts | 167° |
| 2026-05-09 18:22 | 22.03551 | -68.30940 | 36081 ft | 472 kts | 167° |
| 2026-05-09 18:22 | 21.97202 | -68.29162 | 36082 ft | 471 kts | 166° |
| 2026-05-09 18:23 | 21.90848 | -68.27386 | 36083 ft | 471 kts | 167° |